createdAt,value
2018-09-22T00:01:01.581Z,79.70
2018-09-22T00:03:37.423Z,79.37
2018-09-22T00:06:13.340Z,78.84
2018-09-22T00:08:49.192Z,78.69
2018-09-22T00:11:25.033Z,78.50
2018-09-22T00:14:00.904Z,78.57
2018-09-22T00:16:36.799Z,77.33
2018-09-22T00:19:12.712Z,75.56
2018-09-22T00:21:48.660Z,75.71
2018-09-22T00:24:24.885Z,73.98
2018-09-22T00:27:00.654Z,75.46
2018-09-22T00:29:36.629Z,76.47
2018-09-22T00:32:12.477Z,78.52
2018-09-22T00:34:48.346Z,80.78
2018-09-22T00:37:24.269Z,81.31
2018-09-22T00:40:00.099Z,81.62
2018-09-22T00:42:36.071Z,81.39
2018-09-22T00:45:12.025Z,78.89
2018-09-22T00:47:48.194Z,78.45
2018-09-22T00:50:24.240Z,77.41
2018-09-22T00:53:00.045Z,76.80
2018-09-22T00:55:36.020Z,77.05
2018-09-22T00:58:11.906Z,79.26
2018-09-22T01:00:47.835Z,80.52
2018-09-22T01:03:23.640Z,80.00
2018-09-22T01:05:59.509Z,78.87
2018-09-22T01:08:35.306Z,78.91
2018-09-22T01:11:11.112Z,78.95
2018-09-22T01:13:46.958Z,78.82
2018-09-22T01:16:22.928Z,79.56
2018-09-22T01:18:58.718Z,79.25
2018-09-22T01:21:35.020Z,79.56
2018-09-22T01:24:16.620Z,80.09
2018-09-22T01:26:52.519Z,79.67
2018-09-22T01:29:28.425Z,78.50
2018-09-22T01:32:04.324Z,79.13
2018-09-22T01:34:40.082Z,78.35
2018-09-22T01:37:15.952Z,77.87
2018-09-22T01:39:51.734Z,78.40
2018-09-22T01:42:27.696Z,78.83
2018-09-22T01:45:03.815Z,78.66
2018-09-22T01:47:39.669Z,77.77
2018-09-22T01:50:15.486Z,78.36
2018-09-22T01:52:51.337Z,78.47
2018-09-22T01:55:27.281Z,78.90
2018-09-22T01:58:03.283Z,77.95
2018-09-22T02:00:39.363Z,77.78
2018-09-22T02:03:15.318Z,77.76
2018-09-22T02:05:51.268Z,78.38
2018-09-22T02:08:27.116Z,76.70
2018-09-22T02:11:02.991Z,75.26
2018-09-22T02:13:38.942Z,75.65
2018-09-22T02:16:14.862Z,76.51
2018-09-22T02:18:50.744Z,79.52
2018-09-22T02:21:26.662Z,81.35
2018-09-22T02:24:02.568Z,82.33
2018-09-22T02:26:38.404Z,81.74
2018-09-22T02:29:14.429Z,80.67
2018-09-22T02:31:50.277Z,80.89
2018-09-22T02:34:26.220Z,81.02
2018-09-22T02:37:02.296Z,81.28
2018-09-22T02:39:38.327Z,79.87
2018-09-22T02:42:14.243Z,79.64
2018-09-22T02:44:50.178Z,81.04
2018-09-22T02:47:26.156Z,81.26
2018-09-22T02:50:02.137Z,83.24
2018-09-22T02:52:38.470Z,84.53
2018-09-22T02:55:14.439Z,85.52
2018-09-22T02:57:50.395Z,87.16
2018-09-22T03:00:26.353Z,86.20
2018-09-22T03:03:02.288Z,86.54
2018-09-22T03:05:38.185Z,86.20
2018-09-22T03:08:14.134Z,85.02
2018-09-22T03:10:50.107Z,84.53
2018-09-22T03:13:25.920Z,84.76
2018-09-22T03:16:01.839Z,84.00
2018-09-22T03:18:37.504Z,85.26
2018-09-22T03:21:13.427Z,86.07
2018-09-22T03:23:49.406Z,85.46
2018-09-22T03:26:25.284Z,85.60
2018-09-22T03:29:01.191Z,86.17
2018-09-22T03:31:37.378Z,86.06
2018-09-22T03:34:13.390Z,84.45
2018-09-22T03:36:49.341Z,84.63
2018-09-22T03:39:25.258Z,84.97
2018-09-22T03:42:01.308Z,83.90
2018-09-22T03:44:37.240Z,83.90
2018-09-22T03:47:13.251Z,83.08
2018-09-22T03:49:49.236Z,81.48
2018-09-22T03:52:25.162Z,79.17
2018-09-22T03:55:03.610Z,81.11
2018-09-22T03:57:39.640Z,82.28
2018-09-22T04:00:15.487Z,82.08
2018-09-22T04:02:51.359Z,82.22
2018-09-22T04:05:27.151Z,83.17
2018-09-22T04:08:04.985Z,86.62
2018-09-22T04:10:41.394Z,88.00
2018-09-22T04:13:17.455Z,87.39
2018-09-22T04:15:53.381Z,85.16
2018-09-22T04:18:29.229Z,85.18
2018-09-22T04:21:05.149Z,84.54
2018-09-22T04:23:41.012Z,85.86
2018-09-22T04:26:16.787Z,87.15
2018-09-22T04:28:52.686Z,87.89
2018-09-22T04:31:28.670Z,87.18
2018-09-22T04:34:04.797Z,87.39
2018-09-22T04:36:40.807Z,87.50
2018-09-22T04:39:16.773Z,86.81
2018-09-22T04:41:52.725Z,86.49
2018-09-22T04:44:29.117Z,84.34
2018-09-22T04:47:05.989Z,82.58
2018-09-22T04:49:41.984Z,80.96
2018-09-22T04:52:17.949Z,80.92
2018-09-22T04:54:53.910Z,80.62
2018-09-22T04:57:29.735Z,82.14
2018-09-22T05:00:06.032Z,82.01
2018-09-22T05:02:41.890Z,83.39
2018-09-22T05:05:17.920Z,84.03
2018-09-22T05:07:53.866Z,83.59
2018-09-22T05:11:53.728Z,83.17
2018-09-22T05:14:29.635Z,81.35
2018-09-22T05:17:05.614Z,83.34
2018-09-22T05:19:41.701Z,82.24
2018-09-22T05:22:17.668Z,81.35
2018-09-22T05:24:53.687Z,80.69
2018-09-22T05:27:29.954Z,80.87
2018-09-22T05:30:06.357Z,79.73
2018-09-22T05:32:44.933Z,79.51
2018-09-22T05:35:20.737Z,78.02
2018-09-22T05:37:57.736Z,77.09
2018-09-22T05:40:33.570Z,76.38
2018-09-22T05:43:09.457Z,75.37
2018-09-22T05:45:45.449Z,74.51
2018-09-22T05:48:21.446Z,73.09
2018-09-22T05:50:57.450Z,72.82
2018-09-22T05:53:33.443Z,72.40
2018-09-22T05:56:09.489Z,72.53
2018-09-22T05:58:45.467Z,70.42
2018-09-22T06:01:21.270Z,70.04
2018-09-22T06:03:57.329Z,69.46
2018-09-22T06:06:33.384Z,68.04
2018-09-22T06:09:10.370Z,68.34
2018-09-22T06:11:46.294Z,67.84
2018-09-22T06:14:22.383Z,67.43
2018-09-22T06:16:58.336Z,66.40
2018-09-22T06:19:34.222Z,65.63
2018-09-22T06:22:10.208Z,65.51
2018-09-22T06:24:46.222Z,64.06
2018-09-22T06:27:22.178Z,64.40
2018-09-22T06:29:58.014Z,63.85
2018-09-22T06:32:33.905Z,62.85
2018-09-22T06:35:09.784Z,61.46
2018-09-22T06:37:45.743Z,60.87
2018-09-22T06:40:21.666Z,60.88
2018-09-22T06:42:57.563Z,61.10
2018-09-22T06:45:33.520Z,60.71
2018-09-22T06:48:09.786Z,60.59
2018-09-22T06:50:45.920Z,59.69
2018-09-22T06:53:22.700Z,59.56
2018-09-22T06:55:58.856Z,58.52
2018-09-22T06:58:34.901Z,58.39
2018-09-22T07:01:10.820Z,56.98
2018-09-22T07:03:47.175Z,56.22
2018-09-22T07:06:23.022Z,55.73
2018-09-22T07:08:59.234Z,54.85
2018-09-22T07:11:35.318Z,51.88
2018-09-22T07:14:11.324Z,52.42
2018-09-22T07:16:47.694Z,51.00
2018-09-22T07:19:23.662Z,49.95
2018-09-22T07:22:04.625Z,48.98
2018-09-22T07:24:40.605Z,49.30
2018-09-22T07:27:16.737Z,48.09
2018-09-22T07:29:52.981Z,46.95
2018-09-22T07:32:28.879Z,47.25
2018-09-22T07:35:04.838Z,46.30
2018-09-22T07:44:49.423Z,45.64
2018-09-22T07:47:25.262Z,46.29
2018-09-22T07:50:01.168Z,45.12
2018-09-22T07:52:37.157Z,45.19
2018-09-22T07:55:13.129Z,44.13
2018-09-22T07:57:49.237Z,43.35
2018-09-22T08:00:25.352Z,43.26
2018-09-22T08:03:01.375Z,42.79
2018-09-22T08:05:37.184Z,42.21
2018-09-22T08:08:12.977Z,41.78
2018-09-22T08:10:48.886Z,41.26
2018-09-22T08:14:49.027Z,41.55
2018-09-22T08:17:25.127Z,40.58
2018-09-22T08:20:01.041Z,40.66
2018-09-22T08:22:36.965Z,39.43
2018-09-22T08:25:13.234Z,39.96
2018-09-22T08:27:49.459Z,40.03
2018-09-22T08:30:25.254Z,40.05
2018-09-22T08:33:01.434Z,39.97
2018-09-22T08:35:37.769Z,39.55
2018-09-22T08:38:13.797Z,39.35
2018-09-22T08:40:49.632Z,38.88
2018-09-22T08:43:25.530Z,38.28
2018-09-22T08:46:01.472Z,37.81
2018-09-22T08:48:37.503Z,38.79
2018-09-22T08:51:13.499Z,38.21
2018-09-22T08:53:49.710Z,36.92
2018-09-22T08:56:25.640Z,36.41
2018-09-22T08:59:01.751Z,36.02
2018-09-22T09:01:37.566Z,35.86
2018-09-22T09:04:13.533Z,34.42
2018-09-22T09:06:49.352Z,35.23
2018-09-22T09:09:25.225Z,34.87
2018-09-22T09:12:01.016Z,34.89
2018-09-22T09:14:36.855Z,35.42
2018-09-22T09:17:13.089Z,35.40
2018-09-22T09:19:49.232Z,34.67
2018-09-22T09:22:25.096Z,34.76
2018-09-22T09:25:01.051Z,34.01
2018-09-22T09:27:37.105Z,33.24
2018-09-22T09:30:13.373Z,33.18
2018-09-22T09:32:49.187Z,32.54
2018-09-22T09:35:25.120Z,31.70
2018-09-22T09:38:01.210Z,30.62
2018-09-22T09:40:37.266Z,30.47
2018-09-22T09:43:13.080Z,30.67
2018-09-22T09:45:49.036Z,28.67
2018-09-22T09:48:24.863Z,28.11
2018-09-22T09:51:00.777Z,25.84
2018-09-22T09:53:36.795Z,25.35
2018-09-22T09:56:12.789Z,25.14
2018-09-22T09:58:48.689Z,24.89
2018-09-22T10:01:24.799Z,24.59
2018-09-22T10:04:00.615Z,24.59
2018-09-22T10:06:36.601Z,21.84
2018-09-22T10:09:12.581Z,21.82
2018-09-22T10:11:48.750Z,20.60
2018-09-22T10:14:24.901Z,20.77
2018-09-22T10:17:00.806Z,22.00
2018-09-22T10:19:35.515Z,20.92
2018-09-22T10:22:06.924Z,20.89
2018-09-22T10:24:37.798Z,20.62
2018-09-22T10:27:09.128Z,20.79
2018-09-22T10:29:39.953Z,21.04
2018-09-22T10:32:10.850Z,20.97
2018-09-22T10:34:41.704Z,19.98
2018-09-22T10:37:12.946Z,20.10
2018-09-22T10:39:43.811Z,19.71
2018-09-22T10:42:15.091Z,19.52
2018-09-22T10:44:46.193Z,19.88
2018-09-22T10:47:17.130Z,19.47
2018-09-22T10:49:48.009Z,19.06
2018-09-22T10:52:18.989Z,21.37
2018-09-22T10:54:49.879Z,17.32
2018-09-22T10:57:20.761Z,18.94
2018-09-22T10:59:51.591Z,17.89
2018-09-22T11:02:22.615Z,19.78
2018-09-22T11:04:53.459Z,18.43
2018-09-22T11:07:24.433Z,17.17
2018-09-22T11:09:55.293Z,17.30
2018-09-22T11:12:26.217Z,17.15
2018-09-22T11:14:57.055Z,17.48
2018-09-22T11:17:27.944Z,17.29
2018-09-22T11:19:58.783Z,16.20
2018-09-22T11:22:29.719Z,17.36
2018-09-22T11:26:24.853Z,15.68
2018-09-22T11:28:56.400Z,16.14
2018-09-22T11:31:27.390Z,12.51
2018-09-22T11:33:58.437Z,11.34
2018-09-22T11:36:29.291Z,10.90
2018-09-22T11:39:00.282Z,10.44
2018-09-22T11:41:31.162Z,9.05
2018-09-22T11:44:02.155Z,9.29
2018-09-22T11:46:33.063Z,8.45
2018-09-22T11:49:03.981Z,9.12
2018-09-22T11:51:34.864Z,9.29
2018-09-22T11:54:05.802Z,11.57
2018-09-22T11:56:36.777Z,13.27
2018-09-22T11:59:20.475Z,14.08
2018-09-22T12:01:51.406Z,13.33
2018-09-22T12:04:22.660Z,13.21
2018-09-22T12:06:53.530Z,14.50
2018-09-22T12:09:24.520Z,15.90
2018-09-22T12:11:55.404Z,14.88
2018-09-22T12:14:26.358Z,15.16
2018-09-22T12:16:57.206Z,16.14
2018-09-22T12:19:28.130Z,16.58
2018-09-22T12:21:58.990Z,17.92
2018-09-22T12:24:29.993Z,16.83
2018-09-22T12:27:00.845Z,16.35
2018-09-22T12:29:31.803Z,15.14
2018-09-22T12:32:03.072Z,16.01
2018-09-22T12:34:35.167Z,17.46
2018-09-22T12:37:06.112Z,17.71
2018-09-22T12:39:37.050Z,17.35
2018-09-22T12:42:07.993Z,16.43
2018-09-22T12:44:39.756Z,16.63
2018-09-22T12:47:10.582Z,15.85
2018-09-22T12:49:41.535Z,16.77
2018-09-22T12:52:12.498Z,17.77
2018-09-22T12:54:43.412Z,18.30
2018-09-22T12:57:14.281Z,17.97
2018-09-22T12:59:45.228Z,17.49
2018-09-22T13:02:16.080Z,18.53
2018-09-22T13:04:47.088Z,18.31
2018-09-22T13:07:18.031Z,17.73
2018-09-22T13:09:48.930Z,18.17
2018-09-22T13:12:19.819Z,17.18
2018-09-22T13:14:50.754Z,17.37
2018-09-22T13:17:21.624Z,16.20
2018-09-22T13:19:52.543Z,15.88
2018-09-22T13:22:23.846Z,15.67
2018-09-22T13:24:54.905Z,15.38
2018-09-22T13:27:25.757Z,14.90
2018-09-22T13:29:56.717Z,14.56
2018-09-22T13:32:27.582Z,13.37
2018-09-22T13:34:58.501Z,13.34
2018-09-22T13:37:29.352Z,12.63
2018-09-22T13:40:00.270Z,12.01
2018-09-22T13:42:31.135Z,11.13
2018-09-22T13:45:02.093Z,11.49
2018-09-22T13:47:32.953Z,11.35
2018-09-22T13:50:04.290Z,11.37
2018-09-22T13:52:35.188Z,11.37
2018-09-22T13:58:39.753Z,11.49
2018-09-22T14:01:11.111Z,12.11
2018-09-22T14:03:42.016Z,12.27
2018-09-22T14:06:13.703Z,12.46
2018-09-22T14:08:46.242Z,11.94
2018-09-22T14:11:17.123Z,11.62
2018-09-22T14:13:47.979Z,11.63
2018-09-22T14:16:18.923Z,10.70
2018-09-22T14:18:49.789Z,11.21
2018-09-22T14:21:21.634Z,11.44
2018-09-22T14:23:53.014Z,11.40
2018-09-22T14:26:23.922Z,11.44
2018-09-22T14:28:54.775Z,10.79
2018-09-22T14:31:25.754Z,11.00
2018-09-22T14:33:56.772Z,12.65
2018-09-22T14:36:31.304Z,12.64
2018-09-22T14:39:02.231Z,12.68
2018-09-22T14:41:33.164Z,13.01
2018-09-22T14:44:04.432Z,13.94
2018-09-22T14:46:35.550Z,14.49
2018-09-22T14:49:06.403Z,13.82
2018-09-22T14:51:37.301Z,14.21
2018-09-22T14:54:08.159Z,14.68
2018-09-22T14:56:39.066Z,14.18
2018-09-22T14:59:09.965Z,14.74
2018-09-22T15:01:41.424Z,14.74
2018-09-22T15:04:16.930Z,15.62
2018-09-22T15:06:47.992Z,15.68
2018-09-22T15:09:19.285Z,16.93
2018-09-22T15:11:50.374Z,16.16
2018-09-22T15:14:28.897Z,16.37
2018-09-22T15:17:01.763Z,16.20
2018-09-22T15:19:32.809Z,16.43
2018-09-22T15:22:04.440Z,16.30
2018-09-22T15:24:35.414Z,16.61
2018-09-22T15:27:06.408Z,16.68
2018-09-22T15:29:37.274Z,16.76
2018-09-22T15:32:15.066Z,16.91
2018-09-22T15:34:46.996Z,17.03
2018-09-22T15:37:18.032Z,17.59
2018-09-22T15:39:48.879Z,17.70
2018-09-22T15:42:20.565Z,17.77
2018-09-22T15:44:52.717Z,17.94
2018-09-22T15:47:23.606Z,18.00
2018-09-22T15:49:58.176Z,18.00
2018-09-22T15:52:29.118Z,18.20
2018-09-22T15:54:59.959Z,19.17
2018-09-22T15:57:30.884Z,19.31
2018-09-22T16:00:01.735Z,18.91
2018-09-22T16:02:32.630Z,18.95
2018-09-22T16:05:03.510Z,19.92
2018-09-22T16:07:35.819Z,19.29
2018-09-22T16:10:06.771Z,20.06
2018-09-22T16:12:37.699Z,20.61
2018-09-22T16:15:08.606Z,20.83
2018-09-22T16:17:39.925Z,20.95
2018-09-22T16:20:10.779Z,21.67
2018-09-22T16:22:41.738Z,22.49
2018-09-22T16:25:12.616Z,23.79
2018-09-22T16:27:43.535Z,24.86
2018-09-22T16:30:14.401Z,25.47
2018-09-22T16:32:45.325Z,26.20
2018-09-22T16:35:16.365Z,27.94
2018-09-22T16:37:47.845Z,28.78
2018-09-22T16:40:18.782Z,28.76
2018-09-22T16:42:50.487Z,26.90
2018-09-22T16:45:21.347Z,25.85
2018-09-22T16:47:52.247Z,25.74
2018-09-22T16:50:25.773Z,27.46
2018-09-22T16:52:57.168Z,25.35
2018-09-22T16:55:28.040Z,25.42
2018-09-22T16:57:58.985Z,26.76
2018-09-22T17:00:29.835Z,25.96
2018-09-22T17:03:00.748Z,25.96
2018-09-22T17:05:31.775Z,26.89
2018-09-22T17:08:02.769Z,27.46
2018-09-22T17:10:33.625Z,27.59
2018-09-22T17:13:04.530Z,28.63
2018-09-22T17:15:35.553Z,29.87
2018-09-22T17:18:06.480Z,30.44
2018-09-22T17:20:37.325Z,30.44
2018-09-22T17:23:08.321Z,31.53
2018-09-22T17:25:39.169Z,31.94
2018-09-22T17:28:10.298Z,30.95
2018-09-22T17:30:41.163Z,31.31
2018-09-22T17:33:12.051Z,31.36
2018-09-22T17:35:42.915Z,32.61
2018-09-22T17:38:13.914Z,32.67
2018-09-22T17:40:44.854Z,34.17
2018-09-22T17:43:15.802Z,34.12
2018-09-22T17:45:47.236Z,33.87
2018-09-22T17:48:18.281Z,34.45
2018-09-22T17:50:49.303Z,35.06
2018-09-22T17:53:20.332Z,34.31
2018-09-22T17:55:51.388Z,34.96
2018-09-22T17:58:22.324Z,33.94
2018-09-22T18:00:53.361Z,35.59
2018-09-22T18:03:24.380Z,36.59
2018-09-22T18:05:55.237Z,36.83
2018-09-22T18:08:27.264Z,37.62
2018-09-22T18:10:58.214Z,38.52
2018-09-22T18:13:29.136Z,38.09
2018-09-22T18:16:00.002Z,37.38
2018-09-22T18:18:30.924Z,36.85
2018-09-22T18:21:01.783Z,36.81
2018-09-22T18:23:32.744Z,36.21
2018-09-22T18:26:03.827Z,37.10
2018-09-22T18:28:39.427Z,37.98
2018-09-22T18:31:10.369Z,37.72
2018-09-22T18:33:41.275Z,39.58
2018-09-22T18:36:12.191Z,42.21
2018-09-22T18:38:43.233Z,40.49
2018-09-22T18:41:14.081Z,40.99
2018-09-22T18:43:45.008Z,42.42
2018-09-22T18:46:15.934Z,42.42
2018-09-22T18:48:46.850Z,42.99
2018-09-22T18:51:17.948Z,40.57
2018-09-22T18:53:49.637Z,40.79
2018-09-22T18:56:22.306Z,41.04
2018-09-22T18:58:54.040Z,42.24
2018-09-22T19:01:25.008Z,41.54
2018-09-22T19:03:55.916Z,42.91
2018-09-22T19:06:26.785Z,42.22
2018-09-22T19:08:57.754Z,43.13
2018-09-22T19:11:28.623Z,42.31
2018-09-22T19:14:05.790Z,43.98
2018-09-22T19:16:48.609Z,41.49
2018-09-22T19:19:23.580Z,42.34
2018-09-22T19:22:00.161Z,43.05
2018-09-22T19:24:34.420Z,42.80
2018-09-22T19:27:08.883Z,47.54
2018-09-22T19:29:43.739Z,42.41
2018-09-22T19:32:17.944Z,45.67
2018-09-22T19:35:06.857Z,48.09
2018-09-22T19:37:48.433Z,49.53
2018-09-22T19:40:24.337Z,46.25
2018-09-22T19:42:59.804Z,45.33
2018-09-22T19:45:35.094Z,45.89
2018-09-22T19:48:12.646Z,45.78
2018-09-22T19:50:48.920Z,50.61
2018-09-22T19:53:20.283Z,46.31
2018-09-22T19:55:51.338Z,50.60
2018-09-22T19:58:22.307Z,50.14
2018-09-22T20:00:58.519Z,49.85
2018-09-22T20:03:34.327Z,50.82
2018-09-22T20:06:10.277Z,51.61
2018-09-22T20:08:50.157Z,53.98
2018-09-22T20:11:27.928Z,54.31
2018-09-22T20:14:03.729Z,54.45
2018-09-22T20:16:39.699Z,52.70
2018-09-22T20:19:15.548Z,53.66
2018-09-22T20:21:51.396Z,51.21
2018-09-22T20:24:27.244Z,51.41
2018-09-22T20:27:03.195Z,50.84
2018-09-22T20:29:39.021Z,51.21
2018-09-22T20:32:14.861Z,50.80
2018-09-22T20:34:50.704Z,51.15
2018-09-22T20:37:26.559Z,50.84
2018-09-22T20:40:02.571Z,52.90
2018-09-22T20:42:39.103Z,52.34
2018-09-22T20:45:15.106Z,51.59
2018-09-22T20:47:51.251Z,50.92
2018-09-22T20:50:29.163Z,49.99
2018-09-22T20:53:09.513Z,49.15
2018-09-22T20:55:45.697Z,50.14
2018-09-22T20:58:21.675Z,51.18
2018-09-22T21:00:57.638Z,52.04
2018-09-22T21:03:33.952Z,54.62
2018-09-22T21:06:10.050Z,54.33
2018-09-22T21:08:45.822Z,53.83
2018-09-22T21:11:21.854Z,54.39
2018-09-22T21:13:57.784Z,54.91
2018-09-22T21:16:33.795Z,55.29
2018-09-22T21:19:09.925Z,54.58
2018-09-22T21:21:45.913Z,54.32
2018-09-22T21:24:21.852Z,54.30
2018-09-22T21:26:57.924Z,54.01
2018-09-22T21:29:36.473Z,55.06
2018-09-22T21:32:12.318Z,56.48
2018-09-22T21:34:48.308Z,56.17
2018-09-22T21:37:24.133Z,56.42
2018-09-22T21:40:00.126Z,55.44
2018-09-22T21:42:36.162Z,56.09
2018-09-22T21:45:12.193Z,56.60
2018-09-22T21:47:48.030Z,57.89
2018-09-22T21:50:24.046Z,57.19
2018-09-22T21:53:00.004Z,56.42
2018-09-22T21:55:35.864Z,56.61
2018-09-22T21:58:11.740Z,55.86
2018-09-22T22:00:51.624Z,56.75
2018-09-22T22:03:27.619Z,56.38
2018-09-22T22:06:03.884Z,56.04
2018-09-22T22:08:40.376Z,55.83
2018-09-22T22:11:16.470Z,56.46
2018-09-22T22:13:52.478Z,57.58
2018-09-22T22:16:28.462Z,58.31
2018-09-22T22:19:05.033Z,58.18
2018-09-22T22:21:41.007Z,58.79
2018-09-22T22:24:17.558Z,57.16
2018-09-22T22:26:55.231Z,57.11
2018-09-22T22:29:31.113Z,57.79
2018-09-22T22:32:07.761Z,56.85
2018-09-22T22:34:43.488Z,56.87
2018-09-22T22:37:19.970Z,56.00
2018-09-22T22:39:55.967Z,57.13
2018-09-22T22:42:31.837Z,57.67
2018-09-22T22:45:07.749Z,57.27
2018-09-22T22:47:43.906Z,58.26
2018-09-22T22:50:24.250Z,58.38
2018-09-22T22:53:00.117Z,58.54
2018-09-22T22:55:36.161Z,58.35
2018-09-22T22:58:14.066Z,59.23
2018-09-22T23:00:50.126Z,59.98
2018-09-22T23:03:26.117Z,59.63
2018-09-22T23:06:06.708Z,60.23
2018-09-22T23:08:42.919Z,59.91
2018-09-22T23:11:18.842Z,60.12
2018-09-22T23:13:54.889Z,61.74
2018-09-22T23:16:30.823Z,63.74
2018-09-22T23:19:06.791Z,64.95
2018-09-22T23:21:43.792Z,65.54
2018-09-22T23:24:20.100Z,63.45
2018-09-22T23:26:56.028Z,63.98
2018-09-22T23:29:32.007Z,62.39
2018-09-22T23:32:08.861Z,61.76
2018-09-22T23:34:45.024Z,61.13
2018-09-22T23:37:20.781Z,61.97
2018-09-22T23:39:57.095Z,62.53
2018-09-22T23:42:32.980Z,63.10
2018-09-22T23:45:08.941Z,63.65
2018-09-22T23:47:44.770Z,64.46
2018-09-22T23:50:20.891Z,63.50
2018-09-22T23:52:56.847Z,63.90
2018-09-22T23:55:32.738Z,65.10
2018-09-22T23:58:08.685Z,66.11
